Time;durP1;ratioP1;P1;durP2;ratioP2;P2;SDS_P1;SDS_P2;PMS_P1;PMS_P2;Temp;Humidity;BMP_temperature;BMP_pressure;BME280_temperature;BME280_humidity;BME280_pressure;Samples;Min_cycle;Max_cycle;Signal;HPM_P1;HPM_P2
2022/08/31 00:06:20;;;;;;;;;;;;;;;;;;5006434;28;20324;-59
2022/08/31 00:08:47;;;;;;;;;;;;;;;;;;4982499;28;19925;-58
2022/08/31 00:11:15;;;;;;;;;;;;;;;;;;5007587;28;19975;-58
2022/08/31 00:13:45;;;;;;;;;;;;;;;;;;5007170;28;19927;-58
2022/08/31 00:16:10;;;;;;;;;;;;;;;;;;5007347;28;20546;-58
2022/08/31 00:18:35;;;;;;;;;;;;;;;;;;4990729;28;19999;-58
2022/08/31 00:21:01;;;;;;;;;;;;;;;;;;5007030;28;21988;-58
2022/08/31 00:23:29;;;;;;;;;;;;;;;;;;5008943;28;19949;-57
2022/08/31 00:26:00;;;;;;;;;;;;;;;;;;5010025;28;20035;-59
2022/08/31 00:28:25;;;;;;;;;;;;;;;;;;4993819;28;19929;-59
2022/08/31 00:30:53;;;;;;;;;;;;;;;;;;5012729;28;19957;-58
2022/08/31 00:33:19;;;;;;;;;;;;;;;;;;4994255;28;19921;-59
2022/08/31 00:35:46;;;;;;;;;;;;;;;;;;4991866;28;19925;-58
2022/08/31 00:38:14;;;;;;;;;;;;;;;;;;4992633;28;22639;-59
2022/08/31 00:40:39;;;;;;;;;;;;;;;;;;4990503;28;19916;-58
2022/08/31 00:43:05;;;;;;;;;;;;;;;;;;4983313;28;19925;-58
2022/08/31 00:45:33;;;;;;;;;;;;;;;;;;4992961;28;19971;-58
2022/08/31 00:47:58;;;;;;;;;;;;;;;;;;4990374;28;19929;-59
2022/08/31 00:50:25;;;;;;;;;;;;;;;;;;5011208;28;20561;-59
2022/08/31 00:52:51;;;;;;;;;;;;;;;;;;4989453;28;19921;-58
2022/08/31 00:55:18;;;;;;;;;;;;;;;;;;5010368;28;19965;-60
2022/08/31 00:57:46;;;;;;;;;;;;;;;;;;4993295;28;19933;-59
2022/08/31 01:03:25;;;;;;;;;;;;;;;;;;4993534;28;19971;-57
2022/08/31 01:05:52;;;;;;;;;;;;;;;;;;4972434;28;19917;-59
2022/08/31 01:08:18;;;;;;;;;;;;;;;;;;4991956;28;19928;-59
2022/08/31 01:10:46;;;;;;;;;;;;;;;;;;5010068;28;20000;-59
2022/08/31 01:13:13;;;;;;;;;;;;;;;;;;4989563;28;20012;-59
2022/08/31 01:15:39;;;;;;;;;;;;;;;;;;5009023;28;20525;-58
2022/08/31 01:18:06;;;;;;;;;;;;;;;;;;5010197;28;19926;-58
2022/08/31 01:20:32;;;;;;;;;;;;;;;;;;5009711;28;19921;-59
2022/08/31 01:22:57;;;;;;;;;;;;;;;;;;5011228;28;19971;-59
2022/08/31 01:25:25;;;;;;;;;;;;;;;;;;5010038;28;20028;-59
2022/08/31 01:27:52;;;;;;;;;;;;;;;;;;5009360;28;20003;-59
2022/08/31 01:30:18;;;;;;;;;;;;;;;;;;5009366;28;19932;-60
2022/08/31 01:32:45;;;;;;;;;;;;;;;;;;5009765;28;20459;-59
2022/08/31 01:35:13;;;;;;;;;;;;;;;;;;5010135;28;19929;-58
2022/08/31 01:37:38;;;;;;;;;;;;;;;;;;5006814;28;20035;-61
2022/08/31 01:40:04;;;;;;;;;;;;;;;;;;4977707;28;20071;-59
2022/08/31 01:42:29;;;;;;;;;;;;;;;;;;4991186;28;19921;-59
2022/08/31 01:44:54;;;;;;;;;;;;;;;;;;5010294;28;20015;-59
2022/08/31 01:47:20;;;;;;;;;;;;;;;;;;5009978;28;21548;-59
2022/08/31 01:49:45;;;;;;;;;;;;;;;;;;5009228;28;19991;-58
2022/08/31 01:52:13;;;;;;;;;;;;;;;;;;5008900;28;19956;-59
2022/08/31 01:54:38;;;;;;;;;;;;;;;;;;4993984;28;19932;-59
2022/08/31 01:57:04;;;;;;;;;;;;;;;;;;5008005;28;19929;-59
2022/08/31 01:59:31;;;;;;;;;;;;;;;;;;5010137;28;21769;-58
2022/08/31 02:01:57;;;;;;;;;;;;;;;;;;5009712;28;19972;-58
2022/08/31 02:04:24;;;;;;;;;;;;;;;;;;5008571;28;19925;-58
2022/08/31 02:06:49;;;;;;;;;;;;;;;;;;5009938;28;19949;-58
2022/08/31 02:09:17;;;;;;;;;;;;;;;;;;5007232;28;19928;-58
2022/08/31 02:11:42;;;;;;;;;;;;;;;;;;4973339;28;19916;-57
2022/08/31 02:14:10;;;;;;;;;;;;;;;;;;4976476;28;19925;-58
2022/08/31 02:16:35;;;;;;;;;;;;;;;;;;5006464;28;19926;-59
2022/08/31 02:19:03;;;;;;;;;;;;;;;;;;4992562;28;20375;-58
2022/08/31 02:21:31;;;;;;;;;;;;;;;;;;4989553;28;19925;-59
2022/08/31 02:23:57;;;;;;;;;;;;;;;;;;5009171;28;20451;-59
2022/08/31 02:26:22;;;;;;;;;;;;;;;;;;4981511;28;19990;-59
2022/08/31 02:28:50;;;;;;;;;;;;;;;;;;5007366;28;20013;-59
2022/08/31 02:31:15;;;;;;;;;;;;;;;;;;4991080;28;19928;-58
2022/08/31 02:33:42;;;;;;;;;;;;;;;;;;5008085;28;19921;-59
2022/08/31 02:36:10;;;;;;;;;;;;;;;;;;4990855;28;19921;-58
2022/08/31 02:38:38;;;;;;;;;;;;;;;;;;5009063;28;19928;-59
2022/08/31 02:41:03;;;;;;;;;;;;;;;;;;4989806;28;20901;-59
2022/08/31 02:43:29;;;;;;;;;;;;;;;;;;5010484;28;19917;-59
2022/08/31 02:45:57;;;;;;;;;;;;;;;;;;5007029;28;19921;-59
2022/08/31 02:48:25;;;;;;;;;;;;;;;;;;4989786;28;19941;-58
2022/08/31 02:50:52;;;;;;;;;;;;;;;;;;5006989;28;20032;-60
2022/08/31 02:53:17;;;;;;;;;;;;;;;;;;4990069;28;19921;-60
2022/08/31 02:55:43;;;;;;;;;;;;;;;;;;4990539;28;20458;-60
2022/08/31 02:58:08;;;;;;;;;;;;;;;;;;4993215;28;20011;-60
2022/08/31 03:00:33;;;;;;;;;;;;;;;;;;5007099;28;21051;-58
2022/08/31 03:03:02;;;;;;;;;;;;;;;;;;5004673;28;19921;-59
2022/08/31 03:05:29;;;;;;;;;;;;;;;;;;4988766;28;20663;-59
2022/08/31 03:07:57;;;;;;;;;;;;;;;;;;4987993;28;19917;-59
2022/08/31 03:10:25;;;;;;;;;;;;;;;;;;5006782;28;19971;-59
2022/08/31 03:12:53;;;;;;;;;;;;;;;;;;4989143;28;19925;-59
2022/08/31 03:15:18;;;;;;;;;;;;;;;;;;5008022;28;19983;-58
2022/08/31 03:17:46;;;;;;;;;;;;;;;;;;5006477;28;19978;-59
2022/08/31 03:20:14;;;;;;;;;;;;;;;;;;4989632;28;20630;-58
2022/08/31 03:22:39;;;;;;;;;;;;;;;;;;4991612;28;20915;-59
2022/08/31 03:25:05;;;;;;;;;;;;;;;;;;5007843;28;19917;-61
2022/08/31 03:27:33;;;;;;;;;;;;;;;;;;5006555;28;19959;-59
2022/08/31 03:29:58;;;;;;;;;;;;;;;;;;5006157;28;21691;-59
2022/08/31 03:32:24;;;;;;;;;;;;;;;;;;4988511;28;19933;-59
2022/08/31 03:34:49;;;;;;;;;;;;;;;;;;5007346;28;19935;-58
2022/08/31 03:37:17;;;;;;;;;;;;;;;;;;5006138;28;19929;-59
2022/08/31 03:39:42;;;;;;;;;;;;;;;;;;5008023;28;19956;-60
2022/08/31 03:42:07;;;;;;;;;;;;;;;;;;5006111;28;20052;-59
2022/08/31 03:44:35;;;;;;;;;;;;;;;;;;5005432;28;20408;-59
2022/08/31 03:47:00;;;;;;;;;;;;;;;;;;4991231;28;19932;-59
2022/08/31 03:49:29;;;;;;;;;;;;;;;;;;5004949;28;19917;-59
2022/08/31 03:51:54;;;;;;;;;;;;;;;;;;5008161;28;20007;-58
2022/08/31 03:54:19;;;;;;;;;;;;;;;;;;5006387;28;19937;-59
2022/08/31 03:56:45;;;;;;;;;;;;;;;;;;4987391;28;19928;-59
2022/08/31 03:59:10;;;;;;;;;;;;;;;;;;5009556;28;19921;-63
2022/08/31 04:01:38;;;;;;;;;;;;;;;;;;5010821;28;20491;-58
2022/08/31 04:04:04;;;;;;;;;;;;;;;;;;4992977;28;20008;-59
2022/08/31 04:06:32;;;;;;;;;;;;;;;;;;5010320;28;19979;-59
2022/08/31 04:09:00;;;;;;;;;;;;;;;;;;5010816;28;20403;-60
2022/08/31 04:11:26;;;;;;;;;;;;;;;;;;5010522;28;19924;-59
2022/08/31 04:13:51;;;;;;;;;;;;;;;;;;4977139;28;20978;-58
2022/08/31 04:16:17;;;;;;;;;;;;;;;;;;5009363;28;19921;-60
2022/08/31 04:18:44;;;;;;;;;;;;;;;;;;5011275;28;19956;-59
2022/08/31 04:21:12;;;;;;;;;;;;;;;;;;4990615;28;19921;-60
2022/08/31 04:23:39;;;;;;;;;;;;;;;;;;5010843;28;19936;-58
2022/08/31 04:26:04;;;;;;;;;;;;;;;;;;5009524;28;20911;-60
2022/08/31 04:28:30;;;;;;;;;;;;;;;;;;5010186;28;19921;-62
2022/08/31 04:30:55;;;;;;;;;;;;;;;;;;5010583;28;19921;-60
2022/08/31 04:33:20;;;;;;;;;;;;;;;;;;5010806;28;19925;-60
2022/08/31 04:35:48;;;;;;;;;;;;;;;;;;5010469;28;19983;-59
2022/08/31 04:38:34;;;;;;;;;;;;;;;;;;5008036;28;20046;-59
2022/08/31 04:41:02;;;;;;;;;;;;;;;;;;5008402;28;19923;-59
2022/08/31 04:43:30;;;;;;;;;;;;;;;;;;5010270;28;19921;-59
2022/08/31 04:45:58;;;;;;;;;;;;;;;;;;5009091;28;19999;-59
2022/08/31 04:48:26;;;;;;;;;;;;;;;;;;5009832;28;19917;-59
2022/08/31 04:50:51;;;;;;;;;;;;;;;;;;4989245;28;19917;-59
2022/08/31 04:53:19;;;;;;;;;;;;;;;;;;4993200;28;20578;-60
2022/08/31 04:55:46;;;;;;;;;;;;;;;;;;5008301;28;20023;-59
2022/08/31 04:58:12;;;;;;;;;;;;;;;;;;4990675;28;20555;-58
2022/08/31 05:00:37;;;;;;;;;;;;;;;;;;5010443;28;20358;-59
2022/08/31 05:03:03;;;;;;;;;;;;;;;;;;5009553;28;19975;-59
2022/08/31 05:05:28;;;;;;;;;;;;;;;;;;4975993;28;19921;-59
2022/08/31 05:07:56;;;;;;;;;;;;;;;;;;5010724;28;20415;-59
2022/08/31 05:10:23;;;;;;;;;;;;;;;;;;5008018;28;19925;-58
2022/08/31 05:12:51;;;;;;;;;;;;;;;;;;4974792;28;19925;-59
2022/08/31 05:15:17;;;;;;;;;;;;;;;;;;4991244;28;19932;-59
2022/08/31 05:17:43;;;;;;;;;;;;;;;;;;5007567;28;19921;-59
2022/08/31 05:20:10;;;;;;;;;;;;;;;;;;4984147;28;20387;-59
2022/08/31 05:22:36;;;;;;;;;;;;;;;;;;5009706;28;19932;-60
2022/08/31 05:25:04;;;;;;;;;;;;;;;;;;4988905;28;20020;-58
2022/08/31 05:27:29;;;;;;;;;;;;;;;;;;4993421;28;19925;-60
2022/08/31 05:29:54;;;;;;;;;;;;;;;;;;5009868;28;19921;-58
2022/08/31 05:39:10;;;;;;;;;;;;;;;;;;5010344;28;19928;-59
2022/08/31 05:41:36;;;;;;;;;;;;;;;;;;5007736;28;19928;-59
2022/08/31 05:44:01;;;;;;;;;;;;;;;;;;5008585;28;20321;-60
2022/08/31 05:46:28;;;;;;;;;;;;;;;;;;5007009;28;19925;-59
2022/08/31 05:48:54;;;;;;;;;;;;;;;;;;5010586;28;19974;-60
2022/08/31 05:51:19;;;;;;;;;;;;;;;;;;5007945;28;19927;-60
2022/08/31 05:53:47;;;;;;;;;;;;;;;;;;4979474;28;20447;-60
2022/08/31 05:56:12;;;;;;;;;;;;;;;;;;5008545;28;19932;-60
2022/08/31 05:58:40;;;;;;;;;;;;;;;;;;5009093;28;20273;-60
2022/08/31 06:01:07;;;;;;;;;;;;;;;;;;4996294;28;20048;-60
2022/08/31 06:03:33;;;;;;;;;;;;;;;;;;5013998;28;19921;-60
2022/08/31 06:05:59;;;;;;;;;;;;;;;;;;4965315;28;19951;-60
2022/08/31 06:08:24;;;;;;;;;;;;;;;;;;4977509;28;20458;-59
2022/08/31 06:10:52;;;;;;;;;;;;;;;;;;5009480;28;19921;-59
2022/08/31 06:13:18;;;;;;;;;;;;;;;;;;5013176;28;21829;-59
2022/08/31 06:15:46;;;;;;;;;;;;;;;;;;5008731;28;21781;-59
2022/08/31 06:18:14;;;;;;;;;;;;;;;;;;5011185;28;19932;-59
2022/08/31 06:20:44;;;;;;;;;;;;;;;;;;4991915;28;19921;-60
2022/08/31 06:23:11;;;;;;;;;;;;;;;;;;5010809;28;20573;-60
2022/08/31 06:25:37;;;;;;;;;;;;;;;;;;4991656;28;19967;-60
2022/08/31 06:28:04;;;;;;;;;;;;;;;;;;4990227;28;20008;-60
2022/08/31 06:30:31;;;;;;;;;;;;;;;;;;5008065;28;19917;-61
2022/08/31 06:32:57;;;;;;;;;;;;;;;;;;5008640;28;19929;-59
2022/08/31 06:35:22;;;;;;;;;;;;;;;;;;5006253;28;19932;-59
2022/08/31 06:37:51;;;;;;;;;;;;;;;;;;4990637;28;19932;-58
2022/08/31 06:40:17;;;;;;;;;;;;;;;;;;5007982;28;19921;-58
2022/08/31 06:42:42;;;;;;;;;;;;;;;;;;5008098;28;19925;-58
2022/08/31 06:45:10;;;;;;;;;;;;;;;;;;4993910;28;19921;-59
2022/08/31 06:47:35;;;;;;;;;;;;;;;;;;4989965;28;19936;-60
2022/08/31 06:50:01;;;;;;;;;;;;;;;;;;5009675;28;19967;-60
2022/08/31 06:52:26;;;;;;;;;;;;;;;;;;4989019;28;20027;-61
2022/08/31 06:54:53;;;;;;;;;;;;;;;;;;5008202;28;19967;-60
2022/08/31 06:57:19;;;;;;;;;;;;;;;;;;4992942;28;19929;-59
2022/08/31 06:59:44;;;;;;;;;;;;;;;;;;5008052;28;20442;-60
2022/08/31 07:02:12;;;;;;;;;;;;;;;;;;4997909;28;19916;-62
2022/08/31 07:04:38;;;;;;;;;;;;;;;;;;5005983;28;20902;-60
2022/08/31 07:07:13;;;;;;;;;;;;;;;;;;5005488;28;20307;-60
2022/08/31 07:09:40;;;;;;;;;;;;;;;;;;4992205;28;19921;-61
2022/08/31 07:12:06;;;;;;;;;;;;;;;;;;5010029;28;20492;-60
2022/08/31 07:14:31;;;;;;;;;;;;;;;;;;5008383;28;19936;-59
2022/08/31 07:17:01;;;;;;;;;;;;;;;;;;4989899;28;19932;-61
2022/08/31 07:19:29;;;;;;;;;;;;;;;;;;5006545;28;20024;-62
2022/08/31 07:21:57;;;;;;;;;;;;;;;;;;5008913;28;19931;-60
2022/08/31 07:24:24;;;;;;;;;;;;;;;;;;5010980;28;19943;-60
2022/08/31 07:26:52;;;;;;;;;;;;;;;;;;5006676;28;19983;-61
2022/08/31 07:29:19;;;;;;;;;;;;;;;;;;5006457;28;19952;-62
2022/08/31 07:31:45;;;;;;;;;;;;;;;;;;4986892;28;19925;-61
2022/08/31 07:34:11;;;;;;;;;;;;;;;;;;4995081;28;20591;-61
2022/08/31 07:42:08;;;;;;;;;;;;;;;;;;4987997;28;20277;-63
2022/08/31 07:42:13;;;;;;;;;;;;;;;;;;4987561;28;19921;-62
2022/08/31 07:44:40;;;;;;;;;;;;;;;;;;5006553;28;20443;-61
2022/08/31 07:47:11;;;;;;;;;;;;;;;;;;4989861;28;19925;-62
2022/08/31 07:49:36;;;;;;;;;;;;;;;;;;4990190;28;19998;-63
2022/08/31 07:52:04;;;;;;;;;;;;;;;;;;5008211;28;20360;-61
2022/08/31 07:54:31;;;;;;;;;;;;;;;;;;5005416;28;19921;-64
2022/08/31 07:57:03;;;;;;;;;;;;;;;;;;4987799;28;19929;-62
2022/08/31 07:59:31;;;;;;;;;;;;;;;;;;4988246;28;19920;-65
2022/08/31 08:02:00;;;;;;;;;;;;;;;;;;4987833;28;20572;-64
2022/08/31 08:04:26;;;;;;;;;;;;;;;;;;5004742;28;19929;-63
2022/08/31 08:06:54;;;;;;;;;;;;;;;;;;4975117;28;19987;-63
2022/08/31 08:09:20;;;;;;;;;;;;;;;;;;4971317;28;19927;-63
2022/08/31 08:11:45;;;;;;;;;;;;;;;;;;4988722;28;19933;-64
2022/08/31 08:14:18;;;;;;;;;;;;;;;;;;4973440;28;19921;-65
2022/08/31 08:16:46;;;;;;;;;;;;;;;;;;4970933;28;19932;-63
2022/08/31 08:19:11;;;;;;;;;;;;;;;;;;5008872;28;19923;-63
2022/08/31 08:21:37;;;;;;;;;;;;;;;;;;4990129;28;20583;-60
2022/08/31 08:24:05;;;;;;;;;;;;;;;;;;4987536;28;19921;-60
2022/08/31 08:26:49;;;;;;;;;;;;;;;;;;4988846;28;19922;-64
2022/08/31 08:29:17;;;;;;;;;;;;;;;;;;4979671;28;19921;-62
2022/08/31 08:31:42;;;;;;;;;;;;;;;;;;4990673;28;19921;-63
2022/08/31 08:34:08;;;;;;;;;;;;;;;;;;4988463;28;19924;-62
2022/08/31 08:36:34;;;;;;;;;;;;;;;;;;4989719;28;19929;-63
2022/08/31 08:39:00;;;;;;;;;;;;;;;;;;4978534;28;19999;-63
2022/08/31 08:41:25;;;;;;;;;;;;;;;;;;4972642;28;20068;-63
2022/08/31 08:43:51;;;;;;;;;;;;;;;;;;4989417;28;19917;-63
2022/08/31 08:46:18;;;;;;;;;;;;;;;;;;5006041;28;20028;-61
2022/08/31 08:48:45;;;;;;;;;;;;;;;;;;5008136;28;19925;-63
2022/08/31 08:51:13;;;;;;;;;;;;;;;;;;4968423;28;21998;-62
2022/08/31 08:53:41;;;;;;;;;;;;;;;;;;4991436;28;20019;-62
2022/08/31 08:56:10;;;;;;;;;;;;;;;;;;4991460;28;20042;-63
2022/08/31 08:58:38;;;;;;;;;;;;;;;;;;4992857;28;20052;-64
2022/08/31 09:01:04;;;;;;;;;;;;;;;;;;5008120;28;20027;-61
2022/08/31 09:03:30;;;;;;;;;;;;;;;;;;4975921;28;19921;-64
2022/08/31 09:05:58;;;;;;;;;;;;;;;;;;4973065;28;20356;-63
2022/08/31 09:08:23;;;;;;;;;;;;;;;;;;4992223;28;19917;-62
2022/08/31 09:10:48;;;;;;;;;;;;;;;;;;4973994;28;20137;-63
2022/08/31 09:13:14;;;;;;;;;;;;;;;;;;5010101;28;21895;-61
2022/08/31 09:15:41;;;;;;;;;;;;;;;;;;5009951;28;19932;-60
2022/08/31 09:18:09;;;;;;;;;;;;;;;;;;4988495;28;19938;-64
2022/08/31 09:20:35;;;;;;;;;;;;;;;;;;5007721;28;19925;-63
2022/08/31 09:23:06;;;;;;;;;;;;;;;;;;5008455;28;19928;-63
2022/08/31 09:25:32;;;;;;;;;;;;;;;;;;5007869;28;19944;-63
2022/08/31 09:27:57;;;;;;;;;;;;;;;;;;4988510;28;20944;-63
2022/08/31 09:30:22;;;;;;;;;;;;;;;;;;4980064;28;19917;-65
2022/08/31 09:32:48;;;;;;;;;;;;;;;;;;5010443;28;19921;-62
2022/08/31 09:35:13;;;;;;;;;;;;;;;;;;5009504;28;19928;-62
2022/08/31 09:37:49;;;;;;;;;;;;;;;;;;4992359;28;22029;-65
2022/08/31 09:40:14;;;;;;;;;;;;;;;;;;4975772;28;19925;-61
2022/08/31 09:42:59;;;;;;;;;;;;;;;;;;5007892;28;20376;-63
2022/08/31 09:45:34;;;;;;;;;;;;;;;;;;4987631;28;19975;-62
2022/08/31 09:48:00;;;;;;;;;;;;;;;;;;5009861;28;19933;-62
2022/08/31 09:50:25;;;;;;;;;;;;;;;;;;4989605;28;19920;-64
2022/08/31 09:55:38;;;;;;;;;;;;;;;;;;5007304;28;20029;-63
2022/08/31 09:58:09;;;;;;;;;;;;;;;;;;4975844;28;20382;-66
2022/08/31 10:00:37;;;;;;;;;;;;;;;;;;5008064;28;19921;-65
2022/08/31 10:03:07;;;;;;;;;;;;;;;;;;5006440;28;19920;-61
2022/08/31 10:05:39;;;;;;;;;;;;;;;;;;4990664;28;19921;-59
2022/08/31 10:08:05;;;;;;;;;;;;;;;;;;4991149;28;20003;-64
2022/08/31 10:10:31;;;;;;;;;;;;;;;;;;4988878;28;19967;-64
2022/08/31 10:12:57;;;;;;;;;;;;;;;;;;4972652;28;19941;-60
2022/08/31 10:15:22;;;;;;;;;;;;;;;;;;4991491;28;19933;-62
2022/08/31 10:17:56;;;;;;;;;;;;;;;;;;5006517;28;20027;-63
2022/08/31 10:20:22;;;;;;;;;;;;;;;;;;4992186;28;20052;-63
2022/08/31 10:22:49;;;;;;;;;;;;;;;;;;4972646;28;19964;-64
2022/08/31 10:25:17;;;;;;;;;;;;;;;;;;5008967;28;20262;-62
2022/08/31 10:27:42;;;;;;;;;;;;;;;;;;4974644;28;19970;-63
2022/08/31 10:30:08;;;;;;;;;;;;;;;;;;4990782;28;19929;-62
2022/08/31 10:32:33;;;;;;;;;;;;;;;;;;5008167;28;19916;-64
2022/08/31 10:35:04;;;;;;;;;;;;;;;;;;4990908;28;19921;-63
2022/08/31 10:37:30;;;;;;;;;;;;;;;;;;4991401;28;19921;-63
2022/08/31 10:39:57;;;;;;;;;;;;;;;;;;4989805;28;19960;-63
2022/08/31 10:42:22;;;;;;;;;;;;;;;;;;5006225;28;20005;-64
2022/08/31 10:44:55;;;;;;;;;;;;;;;;;;4989862;28;19921;-64
2022/08/31 10:47:24;;;;;;;;;;;;;;;;;;4980438;28;21116;-60
2022/08/31 10:49:52;;;;;;;;;;;;;;;;;;4979693;28;19923;-64
2022/08/31 10:52:17;;;;;;;;;;;;;;;;;;5007589;28;19926;-64
2022/08/31 10:54:43;;;;;;;;;;;;;;;;;;4990411;28;21828;-60
2022/08/31 10:57:11;;;;;;;;;;;;;;;;;;4990885;28;19964;-65
2022/08/31 11:02:25;;;;;;;;;;;;;;;;;;5005112;28;19921;-64
2022/08/31 11:04:54;;;;;;;;;;;;;;;;;;4991982;28;21242;-63
2022/08/31 11:07:25;;;;;;;;;;;;;;;;;;5007294;28;19957;-63
2022/08/31 11:09:53;;;;;;;;;;;;;;;;;;4991790;28;20472;-62
2022/08/31 11:12:21;;;;;;;;;;;;;;;;;;4987339;28;21549;-62
2022/08/31 11:14:48;;;;;;;;;;;;;;;;;;4984835;28;20309;-60
2022/08/31 11:17:17;;;;;;;;;;;;;;;;;;4988346;28;19921;-61
2022/08/31 11:19:49;;;;;;;;;;;;;;;;;;4967722;28;19922;-61
2022/08/31 11:22:15;;;;;;;;;;;;;;;;;;5006639;28;19932;-63
2022/08/31 11:24:40;;;;;;;;;;;;;;;;;;5007054;28;19921;-64
2022/08/31 11:27:10;;;;;;;;;;;;;;;;;;4987942;28;22118;-62
2022/08/31 11:29:36;;;;;;;;;;;;;;;;;;4971337;28;19921;-62
2022/08/31 11:32:01;;;;;;;;;;;;;;;;;;4989669;28;19925;-62
2022/08/31 11:34:26;;;;;;;;;;;;;;;;;;4986393;28;19917;-61
2022/08/31 11:36:52;;;;;;;;;;;;;;;;;;4986080;28;19989;-62
2022/08/31 11:39:17;;;;;;;;;;;;;;;;;;5005086;28;19956;-62
2022/08/31 11:41:45;;;;;;;;;;;;;;;;;;4972346;28;19925;-63
2022/08/31 11:44:10;;;;;;;;;;;;;;;;;;4990975;28;19964;-61
2022/08/31 11:46:36;;;;;;;;;;;;;;;;;;5006020;28;20744;-61
2022/08/31 11:49:02;;;;;;;;;;;;;;;;;;4991353;28;19920;-62
2022/08/31 11:51:32;;;;;;;;;;;;;;;;;;4987342;28;19975;-62
2022/08/31 11:54:00;;;;;;;;;;;;;;;;;;4990711;28;21057;-62
2022/08/31 11:56:26;;;;;;;;;;;;;;;;;;5005706;28;19929;-61
2022/08/31 11:58:52;;;;;;;;;;;;;;;;;;4989906;28;19917;-63
2022/08/31 12:01:17;;;;;;;;;;;;;;;;;;5005416;28;19928;-62
2022/08/31 12:03:43;;;;;;;;;;;;;;;;;;4969608;28;19921;-62
2022/08/31 12:06:08;;;;;;;;;;;;;;;;;;4989630;28;19929;-64
2022/08/31 12:08:51;;;;;;;;;;;;;;;;;;4973283;28;19974;-61
2022/08/31 12:11:16;;;;;;;;;;;;;;;;;;5006192;28;20487;-62
2022/08/31 12:13:48;;;;;;;;;;;;;;;;;;5007484;28;19932;-58
2022/08/31 12:16:13;;;;;;;;;;;;;;;;;;4973530;28;19928;-62
2022/08/31 12:18:39;;;;;;;;;;;;;;;;;;5003624;28;19982;-61
2022/08/31 12:23:49;;;;;;;;;;;;;;;;;;5014655;28;20038;-64
2022/08/31 12:26:15;;;;;;;;;;;;;;;;;;5012068;28;20495;-63
2022/08/31 12:28:42;;;;;;;;;;;;;;;;;;5011717;28;21871;-63
2022/08/31 12:31:08;;;;;;;;;;;;;;;;;;4978698;28;19933;-62
2022/08/31 12:33:33;;;;;;;;;;;;;;;;;;4997356;28;19953;-61
2022/08/31 12:36:01;;;;;;;;;;;;;;;;;;5014459;28;19979;-58
2022/08/31 12:38:29;;;;;;;;;;;;;;;;;;5013126;28;20814;-62
2022/08/31 12:40:57;;;;;;;;;;;;;;;;;;4987727;28;19928;-60
2022/08/31 12:43:22;;;;;;;;;;;;;;;;;;4981007;28;19936;-62
2022/08/31 12:45:48;;;;;;;;;;;;;;;;;;4995594;28;21408;-62
2022/08/31 12:48:15;;;;;;;;;;;;;;;;;;4995044;28;20019;-60
2022/08/31 12:50:41;;;;;;;;;;;;;;;;;;5014101;28;19993;-61
2022/08/31 12:53:06;;;;;;;;;;;;;;;;;;4995796;28;19921;-62
2022/08/31 12:55:36;;;;;;;;;;;;;;;;;;5016101;28;19921;-62
2022/08/31 12:58:02;;;;;;;;;;;;;;;;;;4998794;28;19932;-61
2022/08/31 13:00:30;;;;;;;;;;;;;;;;;;4981025;28;19920;-62
2022/08/31 13:02:56;;;;;;;;;;;;;;;;;;4996414;28;19917;-62
2022/08/31 13:05:21;;;;;;;;;;;;;;;;;;4996176;28;19927;-62
2022/08/31 13:07:47;;;;;;;;;;;;;;;;;;4996570;28;19971;-62
2022/08/31 13:10:14;;;;;;;;;;;;;;;;;;4968033;28;19976;-61
2022/08/31 13:12:40;;;;;;;;;;;;;;;;;;5012415;28;19920;-61
2022/08/31 13:15:05;;;;;;;;;;;;;;;;;;4997161;28;19916;-60
2022/08/31 13:17:33;;;;;;;;;;;;;;;;;;5012441;28;19921;-61
2022/08/31 13:20:00;;;;;;;;;;;;;;;;;;4993509;28;20490;-61
2022/08/31 13:22:26;;;;;;;;;;;;;;;;;;5012684;28;19917;-63
2022/08/31 13:24:51;;;;;;;;;;;;;;;;;;5012858;28;19921;-58
2022/08/31 13:27:17;;;;;;;;;;;;;;;;;;4995462;28;20007;-61
2022/08/31 13:29:44;;;;;;;;;;;;;;;;;;4980633;28;19968;-59
2022/08/31 13:32:12;;;;;;;;;;;;;;;;;;4978210;28;19921;-62
2022/08/31 13:34:41;;;;;;;;;;;;;;;;;;5014799;28;19992;-60
2022/08/31 13:37:10;;;;;;;;;;;;;;;;;;4979256;28;19925;-62
2022/08/31 13:39:37;;;;;;;;;;;;;;;;;;4979589;28;19921;-62
2022/08/31 13:42:04;;;;;;;;;;;;;;;;;;4979879;28;19921;-62
2022/08/31 13:44:32;;;;;;;;;;;;;;;;;;4995330;28;20055;-59
2022/08/31 13:47:01;;;;;;;;;;;;;;;;;;5013338;28;19936;-62
2022/08/31 13:49:28;;;;;;;;;;;;;;;;;;4996348;28;19971;-61
2022/08/31 13:51:53;;;;;;;;;;;;;;;;;;5013144;28;19921;-62
2022/08/31 13:54:21;;;;;;;;;;;;;;;;;;4979098;28;19990;-62
2022/08/31 13:57:05;;;;;;;;;;;;;;;;;;4994322;28;19917;-62
2022/08/31 13:59:33;;;;;;;;;;;;;;;;;;5015186;28;19924;-59
2022/08/31 14:02:06;;;;;;;;;;;;;;;;;;5013735;28;19917;-60
2022/08/31 14:04:42;;;;;;;;;;;;;;;;;;4996507;28;19947;-62
2022/08/31 14:07:08;;;;;;;;;;;;;;;;;;4993836;28;19970;-62
2022/08/31 14:09:36;;;;;;;;;;;;;;;;;;5014752;28;20008;-61
2022/08/31 14:12:04;;;;;;;;;;;;;;;;;;4995781;28;19933;-62
2022/08/31 14:14:39;;;;;;;;;;;;;;;;;;4992863;28;19952;-58
2022/08/31 14:17:04;;;;;;;;;;;;;;;;;;4978152;28;20650;-61
2022/08/31 14:19:29;;;;;;;;;;;;;;;;;;4994912;28;19925;-60
2022/08/31 14:24:50;;;;;;;;;;;;;;;;;;5012942;28;19924;-63
2022/08/31 14:27:16;;;;;;;;;;;;;;;;;;4994180;28;20257;-62
2022/08/31 14:29:43;;;;;;;;;;;;;;;;;;5014164;28;20404;-61
2022/08/31 14:32:09;;;;;;;;;;;;;;;;;;4991860;28;20463;-61
2022/08/31 14:34:34;;;;;;;;;;;;;;;;;;5012349;28;19921;-63
2022/08/31 14:37:05;;;;;;;;;;;;;;;;;;4995527;28;19933;-60
2022/08/31 14:39:32;;;;;;;;;;;;;;;;;;5010620;28;19925;-60
2022/08/31 14:41:58;;;;;;;;;;;;;;;;;;4995942;28;20380;-61
2022/08/31 14:44:24;;;;;;;;;;;;;;;;;;4995576;28;21832;-61
2022/08/31 14:49:39;;;;;;;;;;;;;;;;;;4994491;28;20059;-61
2022/08/31 14:52:05;;;;;;;;;;;;;;;;;;4993254;28;20299;-62
2022/08/31 14:54:33;;;;;;;;;;;;;;;;;;4979861;28;19921;-61
2022/08/31 14:57:01;;;;;;;;;;;;;;;;;;5011506;28;20015;-61
2022/08/31 14:59:26;;;;;;;;;;;;;;;;;;4995821;28;19921;-62
2022/08/31 15:01:55;;;;;;;;;;;;;;;;;;5012908;28;19932;-61
2022/08/31 15:04:21;;;;;;;;;;;;;;;;;;4992853;28;20006;-61
2022/08/31 15:06:46;;;;;;;;;;;;;;;;;;4995673;28;21229;-63
2022/08/31 15:09:14;;;;;;;;;;;;;;;;;;4995435;28;19921;-60
2022/08/31 15:11:40;;;;;;;;;;;;;;;;;;5013120;28;20780;-61
2022/08/31 15:14:11;;;;;;;;;;;;;;;;;;4994760;28;19974;-59
2022/08/31 15:16:36;;;;;;;;;;;;;;;;;;4992012;28;19921;-61
2022/08/31 15:19:12;;;;;;;;;;;;;;;;;;5012828;28;19921;-60
2022/08/31 15:21:41;;;;;;;;;;;;;;;;;;4996803;28;20346;-61
2022/08/31 15:24:07;;;;;;;;;;;;;;;;;;5011448;28;19998;-62
2022/08/31 15:26:32;;;;;;;;;;;;;;;;;;5011242;28;20540;-61
2022/08/31 15:28:58;;;;;;;;;;;;;;;;;;4991924;28;19921;-62
2022/08/31 15:31:23;;;;;;;;;;;;;;;;;;4992530;28;19927;-61
2022/08/31 15:33:51;;;;;;;;;;;;;;;;;;4994346;28;20504;-63
2022/08/31 15:36:17;;;;;;;;;;;;;;;;;;4975378;28;19977;-61
2022/08/31 15:38:42;;;;;;;;;;;;;;;;;;4980351;28;19917;-63
2022/08/31 15:41:10;;;;;;;;;;;;;;;;;;5010988;28;19945;-63
2022/08/31 15:43:37;;;;;;;;;;;;;;;;;;5011616;28;19921;-63
2022/08/31 15:46:06;;;;;;;;;;;;;;;;;;5012015;28;19924;-62
2022/08/31 15:48:41;;;;;;;;;;;;;;;;;;4977013;28;20798;-63
2022/08/31 15:51:09;;;;;;;;;;;;;;;;;;4993104;28;19956;-64
2022/08/31 15:53:34;;;;;;;;;;;;;;;;;;5012829;28;19921;-62
2022/08/31 15:56:04;;;;;;;;;;;;;;;;;;5015058;28;20564;-61
2022/08/31 15:58:40;;;;;;;;;;;;;;;;;;4999157;28;19923;-59
2022/08/31 16:01:12;;;;;;;;;;;;;;;;;;4998608;28;20015;-61
2022/08/31 16:06:37;;;;;;;;;;;;;;;;;;5016082;28;19931;-59
2022/08/31 16:09:03;;;;;;;;;;;;;;;;;;5015967;28;19921;-61
2022/08/31 16:11:29;;;;;;;;;;;;;;;;;;5015691;28;19967;-59
2022/08/31 16:13:57;;;;;;;;;;;;;;;;;;5017457;28;19939;-60
2022/08/31 16:16:25;;;;;;;;;;;;;;;;;;4995421;28;20386;-62
2022/08/31 16:18:51;;;;;;;;;;;;;;;;;;4999913;28;19925;-62
2022/08/31 16:21:20;;;;;;;;;;;;;;;;;;4995188;28;19927;-61
2022/08/31 16:23:46;;;;;;;;;;;;;;;;;;4983112;28;19921;-61
2022/08/31 16:26:13;;;;;;;;;;;;;;;;;;4979808;28;20000;-60
2022/08/31 16:28:41;;;;;;;;;;;;;;;;;;4997946;28;19929;-61
2022/08/31 16:31:11;;;;;;;;;;;;;;;;;;5014329;28;19921;-59
2022/08/31 16:33:38;;;;;;;;;;;;;;;;;;4996607;28;19925;-61
2022/08/31 16:36:05;;;;;;;;;;;;;;;;;;4997026;28;19931;-61
2022/08/31 16:38:32;;;;;;;;;;;;;;;;;;5016454;28;20135;-60
2022/08/31 16:41:00;;;;;;;;;;;;;;;;;;5013138;28;19917;-60
2022/08/31 16:43:26;;;;;;;;;;;;;;;;;;4997576;28;19928;-60
2022/08/31 16:45:51;;;;;;;;;;;;;;;;;;4997726;28;19921;-60
2022/08/31 16:51:01;;;;;;;;;;;;;;;;;;5014841;28;20011;-63
2022/08/31 16:53:27;;;;;;;;;;;;;;;;;;4978868;28;20295;-62
2022/08/31 16:55:52;;;;;;;;;;;;;;;;;;4993671;28;20098;-59
2022/08/31 17:01:02;;;;;;;;;;;;;;;;;;5014434;28;21132;-59
2022/08/31 17:03:27;;;;;;;;;;;;;;;;;;5015452;28;19992;-62
2022/08/31 17:05:53;;;;;;;;;;;;;;;;;;4995092;28;20044;-61
2022/08/31 17:08:18;;;;;;;;;;;;;;;;;;5016648;28;19924;-61
2022/08/31 17:10:44;;;;;;;;;;;;;;;;;;4995903;28;19979;-62
2022/08/31 17:13:10;;;;;;;;;;;;;;;;;;4997329;28;19921;-61
2022/08/31 17:15:35;;;;;;;;;;;;;;;;;;4998994;28;21969;-62
2022/08/31 17:18:00;;;;;;;;;;;;;;;;;;5015416;28;20396;-60
2022/08/31 17:20:28;;;;;;;;;;;;;;;;;;4997813;28;19928;-61
2022/08/31 17:22:56;;;;;;;;;;;;;;;;;;4981435;28;20019;-60
2022/08/31 17:25:22;;;;;;;;;;;;;;;;;;4994155;28;20418;-60